createdAt,value
2022-10-09T00:01:14.161Z,63.43
2022-10-09T00:03:43.561Z,62.61
2022-10-09T00:06:13.629Z,62.39
2022-10-09T00:08:41.046Z,62.42
2022-10-09T00:11:09.755Z,62.96
2022-10-09T00:13:37.257Z,62.79
2022-10-09T00:16:06.555Z,62.97
2022-10-09T00:18:34.116Z,63.32
2022-10-09T00:21:01.264Z,63.80
2022-10-09T00:23:28.312Z,63.81
2022-10-09T00:25:57.882Z,64.43
2022-10-09T00:28:26.386Z,63.77
2022-10-09T00:30:53.603Z,64.47
2022-10-09T00:33:21.055Z,64.97
2022-10-09T00:35:48.213Z,64.96
2022-10-09T00:38:15.516Z,65.47
2022-10-09T00:40:42.707Z,65.85
2022-10-09T00:43:17.133Z,65.44
2022-10-09T00:45:55.510Z,65.64
2022-10-09T00:48:23.079Z,65.60
2022-10-09T00:50:53.283Z,65.89
2022-10-09T00:53:22.958Z,65.40
2022-10-09T00:55:50.899Z,66.04
2022-10-09T00:58:18.280Z,65.89
2022-10-09T01:00:45.347Z,66.13
2022-10-09T01:03:12.366Z,66.30
2022-10-09T01:06:12.570Z,67.00
2022-10-09T01:09:06.360Z,66.70
2022-10-09T01:11:51.145Z,66.57
2022-10-09T01:14:28.999Z,65.24
2022-10-09T01:16:58.776Z,64.93
2022-10-09T01:19:31.580Z,65.21
2022-10-09T01:22:22.162Z,65.76
2022-10-09T01:25:01.728Z,66.42
2022-10-09T01:27:30.328Z,67.13
2022-10-09T01:30:02.169Z,68.14
2022-10-09T01:32:37.321Z,67.85
2022-10-09T01:35:06.461Z,67.07
2022-10-09T01:37:35.362Z,66.91
2022-10-09T01:40:05.149Z,66.75
2022-10-09T01:42:32.892Z,66.98
2022-10-09T01:44:59.977Z,67.13
2022-10-09T01:47:27.253Z,66.25
2022-10-09T01:50:00.446Z,66.29
2022-10-09T01:52:52.103Z,66.67
2022-10-09T01:55:27.867Z,66.96
2022-10-09T01:58:13.641Z,68.33
2022-10-09T02:00:46.338Z,69.54
2022-10-09T02:03:16.647Z,70.58
2022-10-09T02:05:47.877Z,70.96
2022-10-09T02:08:19.168Z,70.85
2022-10-09T02:10:49.516Z,69.66
2022-10-09T02:13:16.485Z,68.05
2022-10-09T02:15:52.029Z,68.46
2022-10-09T02:18:40.106Z,67.64
2022-10-09T02:21:31.721Z,67.71
2022-10-09T02:24:01.855Z,67.92
2022-10-09T02:26:28.865Z,67.65
2022-10-09T02:28:57.713Z,66.53
2022-10-09T02:31:30.652Z,66.28
2022-10-09T02:33:59.684Z,66.39
2022-10-09T02:36:27.601Z,66.05
2022-10-09T02:38:55.829Z,65.97
2022-10-09T02:41:23.671Z,66.02
2022-10-09T02:43:51.050Z,65.90
2022-10-09T02:46:18.914Z,66.30
2022-10-09T02:48:45.884Z,66.00
2022-10-09T02:51:12.974Z,65.66
2022-10-09T02:53:39.868Z,65.74
2022-10-09T02:56:07.061Z,65.39
2022-10-09T02:58:35.662Z,65.73
2022-10-09T03:01:03.044Z,64.73
2022-10-09T03:03:29.950Z,64.16
2022-10-09T03:06:09.789Z,63.95
2022-10-09T03:08:38.331Z,63.72
2022-10-09T03:11:05.561Z,63.50
2022-10-09T03:13:32.954Z,63.27
2022-10-09T03:16:08.336Z,62.85
2022-10-09T03:18:36.533Z,62.80
2022-10-09T03:21:12.013Z,63.03
2022-10-09T03:23:39.025Z,62.95
2022-10-09T03:26:08.609Z,63.26
2022-10-09T03:28:37.342Z,63.23
2022-10-09T03:31:04.473Z,62.67
2022-10-09T03:33:32.471Z,63.05
2022-10-09T03:35:59.435Z,63.39
2022-10-09T03:38:26.415Z,63.50
2022-10-09T03:40:53.783Z,63.11
2022-10-09T03:43:20.850Z,63.00
2022-10-09T03:45:47.702Z,62.72
2022-10-09T03:48:15.240Z,62.36
2022-10-09T03:50:42.868Z,62.69
2022-10-09T03:53:11.920Z,62.45
2022-10-09T03:55:39.648Z,62.80
2022-10-09T03:58:07.480Z,62.94
2022-10-09T04:00:35.516Z,62.39
2022-10-09T04:03:02.736Z,62.03
2022-10-09T04:05:32.555Z,62.00
2022-10-09T04:07:59.405Z,62.35
2022-10-09T04:10:26.309Z,62.09
2022-10-09T04:12:53.155Z,61.88
2022-10-09T04:15:20.094Z,62.17
2022-10-09T04:17:47.032Z,62.19
2022-10-09T04:20:14.458Z,62.54
2022-10-09T04:22:41.349Z,63.35
2022-10-09T04:25:08.590Z,63.25
2022-10-09T04:27:35.514Z,63.02
2022-10-09T04:30:02.472Z,63.40
2022-10-09T04:32:29.438Z,63.18
2022-10-09T04:34:56.425Z,63.56
2022-10-09T04:37:23.374Z,63.27
2022-10-09T04:39:50.255Z,63.46
2022-10-09T04:42:17.142Z,63.59
2022-10-09T04:44:44.000Z,63.15
2022-10-09T04:47:11.546Z,63.02
2022-10-09T04:49:38.518Z,62.87
2022-10-09T04:52:05.494Z,62.58
2022-10-09T04:54:32.387Z,62.50
2022-10-09T04:56:59.255Z,62.22
2022-10-09T04:59:26.239Z,62.36
2022-10-09T05:01:53.200Z,62.27
2022-10-09T05:04:20.160Z,61.67
2022-10-09T05:06:47.129Z,61.53
2022-10-09T05:09:14.046Z,61.55
2022-10-09T05:11:42.829Z,60.95
2022-10-09T05:14:10.624Z,60.19
2022-10-09T05:17:00.853Z,59.75
2022-10-09T05:19:24.406Z,60.05
2022-10-09T05:21:51.266Z,59.66
2022-10-09T05:24:18.171Z,59.15
2022-10-09T05:26:45.154Z,58.42
2022-10-09T05:29:12.102Z,58.38
2022-10-09T05:31:39.474Z,57.98
2022-10-09T05:34:06.590Z,57.56
2022-10-09T05:36:33.520Z,57.28
2022-10-09T05:39:03.924Z,56.84
2022-10-09T05:41:30.842Z,56.34
2022-10-09T05:44:02.254Z,56.21
2022-10-09T05:46:31.889Z,56.01
2022-10-09T05:49:01.193Z,55.57
2022-10-09T05:51:30.563Z,55.07
2022-10-09T05:53:58.156Z,55.03
2022-10-09T05:56:27.839Z,54.40
2022-10-09T05:58:56.155Z,54.03
2022-10-09T06:01:25.203Z,53.75
2022-10-09T06:03:55.100Z,53.84
2022-10-09T06:06:24.188Z,53.48
2022-10-09T06:08:51.470Z,53.09
2022-10-09T06:11:31.698Z,53.47
2022-10-09T06:14:00.203Z,52.51
2022-10-09T06:16:30.920Z,52.21
2022-10-09T06:18:58.475Z,51.93
2022-10-09T06:21:29.253Z,51.57
2022-10-09T06:23:59.304Z,51.88
2022-10-09T06:26:29.421Z,51.92
2022-10-09T06:28:57.201Z,51.42
2022-10-09T06:31:30.092Z,51.82
2022-10-09T06:33:59.538Z,51.64
2022-10-09T06:36:29.255Z,51.65
2022-10-09T06:38:56.625Z,51.52
2022-10-09T06:41:25.724Z,51.21
2022-10-09T06:44:01.192Z,51.14
2022-10-09T06:46:34.652Z,50.66
2022-10-09T06:49:02.594Z,50.55
2022-10-09T06:51:30.461Z,50.16
2022-10-09T06:54:01.098Z,50.10
2022-10-09T06:56:30.165Z,49.69
2022-10-09T06:59:00.463Z,48.92
2022-10-09T07:01:32.574Z,48.43
2022-10-09T07:04:02.362Z,48.95
2022-10-09T07:06:34.045Z,47.77
2022-10-09T07:09:04.739Z,47.17
2022-10-09T07:11:34.754Z,46.78
2022-10-09T07:14:03.618Z,47.03
2022-10-09T07:16:33.020Z,46.09
2022-10-09T07:19:03.394Z,46.10
2022-10-09T07:21:30.346Z,45.39
2022-10-09T07:24:00.249Z,45.40
2022-10-09T07:26:29.429Z,44.46
2022-10-09T07:28:57.054Z,43.76
2022-10-09T07:31:24.495Z,43.89
2022-10-09T07:33:52.907Z,43.78
2022-10-09T07:36:20.169Z,43.14
2022-10-09T07:38:52.030Z,42.25
2022-10-09T07:41:19.790Z,41.55
2022-10-09T07:43:46.702Z,41.58
2022-10-09T07:46:15.727Z,41.40
2022-10-09T07:48:43.286Z,41.49
2022-10-09T07:51:11.472Z,41.05
2022-10-09T07:53:38.860Z,41.19
2022-10-09T07:56:06.876Z,40.38
2022-10-09T07:58:34.362Z,40.76
2022-10-09T08:01:08.912Z,40.24
2022-10-09T08:03:36.752Z,40.47
2022-10-09T08:06:04.038Z,40.20
2022-10-09T08:08:30.933Z,40.55
2022-10-09T08:10:57.840Z,41.19
2022-10-09T08:13:24.856Z,40.55
2022-10-09T08:15:51.876Z,40.69
2022-10-09T08:18:18.834Z,39.90
2022-10-09T08:20:45.809Z,40.62
2022-10-09T08:23:12.778Z,40.90
2022-10-09T08:25:39.645Z,40.83
2022-10-09T08:28:06.652Z,40.57
2022-10-09T08:30:33.573Z,40.87
2022-10-09T08:33:00.411Z,41.13
2022-10-09T08:35:29.965Z,41.51
2022-10-09T08:37:59.227Z,40.68
2022-10-09T08:41:02.706Z,41.80
2022-10-09T08:43:35.138Z,42.49
2022-10-09T08:46:07.067Z,42.59
2022-10-09T08:48:39.688Z,42.75
2022-10-09T08:51:13.701Z,43.14
2022-10-09T08:53:48.865Z,42.66
2022-10-09T08:56:16.069Z,42.53
2022-10-09T08:58:44.462Z,43.59
2022-10-09T09:01:38.545Z,42.55
2022-10-09T09:04:38.360Z,43.50
2022-10-09T09:07:49.970Z,43.99
2022-10-09T09:10:46.987Z,44.04
2022-10-09T09:13:48.302Z,44.26
2022-10-09T09:16:19.728Z,44.19
2022-10-09T09:18:52.485Z,43.71
2022-10-09T09:21:44.684Z,43.78
2022-10-09T09:24:19.775Z,42.74
2022-10-09T09:26:54.378Z,43.46
2022-10-09T09:29:24.139Z,44.17
2022-10-09T09:31:58.330Z,43.28
2022-10-09T09:34:37.283Z,43.12
2022-10-09T09:37:04.461Z,44.01
2022-10-09T09:40:30.951Z,43.59
2022-10-09T09:42:23.195Z,42.78
2022-10-09T10:16:37.449Z,43.29
2022-10-09T10:19:06.207Z,42.44
2022-10-09T10:21:49.090Z,42.49
2022-10-09T10:24:22.787Z,43.92
2022-10-09T10:26:59.118Z,43.67
2022-10-09T10:29:41.379Z,43.19
2022-10-09T10:32:29.154Z,42.92
2022-10-09T10:35:14.757Z,42.04
2022-10-09T10:38:03.205Z,42.01
2022-10-09T10:40:34.261Z,42.37
2022-10-09T10:43:10.356Z,42.66
2022-10-09T10:45:43.432Z,43.06
2022-10-09T10:48:19.765Z,44.24
2022-10-09T10:51:08.206Z,43.77
2022-10-09T10:53:45.907Z,43.36
2022-10-09T10:56:29.786Z,43.97
2022-10-09T10:59:13.670Z,44.22
2022-10-09T11:01:54.188Z,42.55
2022-10-09T11:04:36.136Z,42.87
2022-10-09T11:07:11.893Z,42.22
2022-10-09T11:09:43.170Z,42.21
2022-10-09T11:12:29.888Z,43.38
2022-10-09T11:15:21.417Z,42.91
2022-10-09T11:18:02.372Z,40.66
2022-10-09T11:20:47.310Z,40.18
2022-10-09T11:23:47.988Z,40.98
2022-10-09T11:26:23.634Z,41.25
2022-10-09T11:29:00.996Z,42.07
2022-10-09T11:31:54.269Z,42.11
2022-10-09T11:34:34.913Z,42.28
2022-10-09T11:37:07.059Z,41.71
2022-10-09T11:39:35.217Z,41.56
2022-10-09T11:42:02.566Z,40.89
2022-10-09T11:44:35.502Z,41.35
2022-10-09T11:47:09.563Z,41.82
2022-10-09T11:49:46.980Z,42.22
2022-10-09T11:52:50.555Z,42.21
2022-10-09T11:55:29.073Z,41.92
2022-10-09T11:57:56.007Z,40.47
2022-10-09T12:00:36.281Z,42.08
2022-10-09T12:03:06.724Z,42.42
2022-10-09T12:05:39.940Z,42.01
2022-10-09T12:08:19.592Z,42.01
2022-10-09T12:11:00.502Z,40.87
2022-10-09T12:13:47.622Z,40.56
2022-10-09T12:16:35.876Z,41.69
2022-10-09T12:19:12.038Z,41.76
2022-10-09T12:21:47.316Z,42.13
2022-10-09T12:24:21.817Z,43.13
2022-10-09T12:26:50.764Z,42.70
2022-10-09T12:29:26.025Z,42.88
2022-10-09T12:31:56.913Z,42.33
2022-10-09T12:34:31.369Z,41.75
2022-10-09T12:37:12.389Z,42.69
2022-10-09T12:39:39.906Z,42.56
2022-10-09T12:42:13.763Z,42.13
2022-10-09T12:44:40.938Z,41.73
2022-10-09T12:47:14.753Z,41.82
2022-10-09T12:49:41.659Z,41.87
2022-10-09T12:52:16.452Z,42.42
2022-10-09T12:54:44.874Z,42.78
2022-10-09T12:57:15.871Z,42.47
2022-10-09T12:59:44.401Z,41.69
2022-10-09T13:02:15.847Z,41.94
2022-10-09T13:04:53.961Z,42.00
2022-10-09T13:07:22.860Z,42.09
2022-10-09T13:09:49.884Z,41.56
2022-10-09T13:12:16.897Z,41.81
2022-10-09T13:14:46.688Z,41.95
2022-10-09T13:17:25.983Z,41.91
2022-10-09T13:19:55.021Z,42.56
2022-10-09T13:22:24.705Z,42.59
2022-10-09T13:24:54.212Z,42.03
2022-10-09T13:27:28.358Z,42.48
2022-10-09T13:29:56.054Z,42.39
2022-10-09T13:32:24.372Z,42.12
2022-10-09T13:34:55.159Z,42.05
2022-10-09T13:37:24.028Z,42.35
2022-10-09T13:39:55.749Z,42.38
2022-10-09T13:42:25.543Z,42.12
2022-10-09T13:44:52.701Z,41.94
2022-10-09T13:47:24.239Z,41.74
2022-10-09T13:49:51.484Z,41.86
2022-10-09T13:52:18.441Z,42.14
2022-10-09T13:54:45.443Z,42.11
2022-10-09T13:57:12.448Z,42.34
2022-10-09T13:59:39.679Z,42.53
2022-10-09T14:02:06.731Z,42.35
2022-10-09T14:04:33.794Z,42.96
2022-10-09T14:07:00.692Z,43.17
2022-10-09T14:09:27.703Z,42.78
2022-10-09T14:11:54.812Z,42.88
2022-10-09T14:14:22.639Z,43.24
2022-10-09T14:16:50.919Z,43.37
2022-10-09T14:19:18.130Z,43.50
2022-10-09T14:21:46.906Z,43.33
2022-10-09T14:24:14.785Z,43.46
2022-10-09T14:26:41.775Z,43.57
2022-10-09T14:29:09.949Z,43.80
2022-10-09T14:31:37.056Z,43.59
2022-10-09T14:34:04.417Z,43.52
2022-10-09T14:36:31.912Z,44.10
2022-10-09T14:39:02.065Z,43.71
2022-10-09T14:41:33.175Z,44.32
2022-10-09T14:44:02.585Z,44.07
2022-10-09T14:46:30.572Z,44.14
2022-10-09T14:48:58.121Z,43.94
2022-10-09T14:51:27.375Z,44.29
2022-10-09T14:54:00.706Z,44.15
2022-10-09T14:56:28.655Z,44.69
2022-10-09T14:58:55.801Z,44.94
2022-10-09T15:01:23.566Z,45.17
2022-10-09T15:03:50.750Z,45.54
2022-10-09T15:06:20.169Z,45.45
2022-10-09T15:08:47.167Z,46.17
2022-10-09T15:11:14.270Z,45.82
2022-10-09T15:13:41.166Z,46.24
2022-10-09T15:16:11.678Z,46.23
2022-10-09T15:18:39.162Z,47.03
2022-10-09T15:21:12.747Z,46.57
2022-10-09T15:23:40.041Z,47.48
2022-10-09T15:26:08.414Z,47.23
2022-10-09T15:28:37.137Z,47.87
2022-10-09T15:31:06.085Z,47.61
2022-10-09T15:33:33.675Z,48.53
2022-10-09T15:36:00.934Z,48.32
2022-10-09T15:38:27.887Z,48.69
2022-10-09T15:40:56.287Z,48.70
2022-10-09T15:43:26.051Z,49.27
2022-10-09T15:46:00.509Z,49.89
2022-10-09T15:48:27.621Z,50.42
2022-10-09T15:50:54.560Z,50.81
2022-10-09T15:53:24.413Z,50.75
2022-10-09T15:55:53.034Z,50.60
2022-10-09T15:58:20.147Z,50.96
2022-10-09T16:00:49.525Z,51.42
2022-10-09T16:03:18.754Z,51.78
2022-10-09T16:05:48.961Z,52.31
2022-10-09T16:08:19.019Z,52.49
2022-10-09T16:10:49.146Z,52.58
2022-10-09T16:13:16.676Z,52.62
2022-10-09T16:15:45.559Z,52.67
2022-10-09T16:18:12.639Z,52.92
2022-10-09T16:20:40.915Z,54.27
2022-10-09T16:23:09.610Z,54.24
2022-10-09T16:25:38.090Z,54.98
2022-10-09T16:28:05.957Z,55.47
2022-10-09T16:30:33.544Z,55.53
2022-10-09T16:33:00.487Z,55.57
2022-10-09T16:35:28.698Z,55.76
2022-10-09T16:37:55.747Z,55.79
2022-10-09T16:40:32.651Z,55.55
2022-10-09T16:43:09.600Z,55.90
2022-10-09T16:45:36.558Z,56.21
2022-10-09T16:48:04.294Z,55.94
2022-10-09T16:50:31.797Z,56.31
2022-10-09T16:52:58.903Z,56.19
2022-10-09T16:55:27.531Z,56.33
2022-10-09T16:57:55.885Z,56.82
2022-10-09T17:00:22.822Z,56.58
2022-10-09T17:02:49.859Z,57.52
2022-10-09T17:05:16.719Z,57.23
2022-10-09T17:07:43.680Z,57.58
2022-10-09T17:10:10.800Z,57.55
2022-10-09T17:12:37.710Z,57.51
2022-10-09T17:15:05.887Z,57.48
2022-10-09T17:17:32.907Z,57.30
2022-10-09T17:20:00.029Z,57.45
2022-10-09T17:22:26.949Z,57.68
2022-10-09T17:24:54.919Z,57.95
2022-10-09T17:27:21.811Z,57.78
2022-10-09T17:29:48.744Z,58.09
2022-10-09T17:32:15.669Z,58.07
2022-10-09T17:34:43.099Z,58.28
2022-10-09T17:37:10.005Z,58.44
2022-10-09T17:39:36.962Z,58.71
2022-10-09T17:42:04.438Z,58.88
2022-10-09T17:44:32.096Z,58.81
2022-10-09T17:46:59.003Z,58.92
2022-10-09T17:49:25.903Z,59.04
2022-10-09T17:51:54.589Z,58.99
2022-10-09T17:54:21.868Z,59.20
2022-10-09T17:56:48.844Z,59.02
2022-10-09T17:59:15.972Z,58.88
2022-10-09T18:01:44.469Z,59.31
2022-10-09T18:04:15.785Z,59.37
2022-10-09T18:06:43.239Z,59.58
2022-10-09T18:09:10.124Z,59.70
2022-10-09T18:11:37.396Z,60.16
2022-10-09T18:14:04.379Z,60.49
2022-10-09T18:16:36.774Z,59.92
2022-10-09T18:19:07.770Z,60.47
2022-10-09T18:21:35.753Z,60.23
2022-10-09T18:24:02.855Z,59.76
2022-10-09T18:26:29.808Z,59.62
2022-10-09T18:28:58.585Z,59.55
2022-10-09T18:31:25.654Z,59.51
2022-10-09T18:33:53.195Z,59.65
2022-10-09T18:36:23.244Z,59.31
2022-10-09T18:38:55.383Z,59.36
2022-10-09T18:41:23.238Z,59.54
2022-10-09T18:43:51.673Z,59.59
2022-10-09T18:46:21.797Z,59.74
2022-10-09T18:48:49.726Z,59.70
2022-10-09T18:51:20.257Z,59.66
2022-10-09T18:53:52.277Z,59.79
2022-10-09T18:56:21.136Z,59.32
2022-10-09T18:58:51.591Z,59.41
2022-10-09T19:01:19.416Z,58.81
2022-10-09T19:03:49.216Z,58.48
2022-10-09T19:06:19.010Z,58.51
2022-10-09T19:08:46.516Z,58.50
2022-10-09T19:11:14.652Z,58.19
2022-10-09T19:13:43.077Z,57.94
2022-10-09T19:16:10.099Z,57.85
2022-10-09T19:18:37.456Z,57.84
2022-10-09T19:21:04.547Z,57.54
2022-10-09T19:23:31.744Z,57.68
2022-10-09T19:25:59.601Z,57.99
2022-10-09T19:28:31.134Z,58.10
2022-10-09T19:30:58.376Z,58.58
2022-10-09T19:33:25.395Z,58.44
2022-10-09T19:35:55.460Z,58.38
2022-10-09T19:38:23.258Z,59.22
2022-10-09T19:40:50.674Z,58.89
2022-10-09T19:43:19.459Z,58.59
2022-10-09T19:45:49.288Z,58.25
2022-10-09T19:48:17.308Z,58.23
2022-10-09T19:50:45.761Z,58.11
2022-10-09T19:53:13.485Z,58.33
2022-10-09T19:55:40.412Z,58.72
2022-10-09T19:58:07.528Z,59.03
2022-10-09T20:00:40.691Z,59.16
2022-10-09T20:03:07.600Z,59.74
2022-10-09T20:05:34.684Z,60.09
2022-10-09T20:08:01.682Z,59.93
2022-10-09T20:10:28.836Z,60.24
2022-10-09T20:12:55.791Z,60.69
2022-10-09T20:15:22.751Z,60.72
2022-10-09T20:17:50.159Z,61.11
2022-10-09T20:20:17.382Z,61.48
2022-10-09T20:22:44.241Z,61.83
2022-10-09T20:25:11.091Z,61.98
2022-10-09T20:27:38.459Z,62.18
2022-10-09T20:30:05.835Z,62.50
2022-10-09T20:32:36.770Z,62.23
2022-10-09T20:35:05.471Z,62.64
2022-10-09T20:37:32.317Z,62.17
2022-10-09T20:39:59.191Z,62.34
2022-10-09T20:42:26.357Z,62.43
2022-10-09T20:44:53.262Z,62.61
2022-10-09T20:47:20.168Z,62.41
2022-10-09T20:49:48.449Z,62.26
2022-10-09T20:52:15.403Z,62.63
2022-10-09T20:54:42.320Z,62.60
2022-10-09T20:57:09.175Z,62.56
2022-10-09T20:59:36.083Z,63.59
2022-10-09T21:02:03.000Z,63.84
2022-10-09T21:04:31.604Z,64.17
2022-10-09T21:06:58.510Z,64.53
2022-10-09T21:09:29.613Z,65.22
2022-10-09T21:11:59.239Z,65.70
2022-10-09T21:14:26.200Z,65.66
2022-10-09T21:16:53.089Z,66.27
2022-10-09T21:19:19.979Z,65.84
2022-10-09T21:21:50.857Z,66.25
2022-10-09T21:24:18.291Z,65.68
2022-10-09T21:26:47.398Z,66.17
2022-10-09T21:29:15.292Z,65.55
2022-10-09T21:31:42.581Z,65.38
2022-10-09T21:34:09.487Z,65.04
2022-10-09T21:37:01.749Z,64.57
2022-10-09T21:39:30.204Z,63.69
2022-10-09T21:41:57.174Z,63.55
2022-10-09T21:44:24.118Z,63.76
2022-10-09T21:46:51.011Z,64.20
2022-10-09T21:49:26.299Z,64.36
2022-10-09T21:51:53.661Z,64.45
2022-10-09T21:54:20.699Z,64.56
2022-10-09T21:56:47.802Z,65.01
2022-10-09T21:59:14.717Z,65.73
2022-10-09T22:01:41.616Z,65.59
2022-10-09T22:04:08.653Z,66.50
2022-10-09T22:06:35.591Z,67.19
2022-10-09T22:09:02.567Z,68.56
2022-10-09T22:11:29.479Z,68.56
2022-10-09T22:13:56.471Z,69.08
2022-10-09T22:16:23.686Z,69.62
2022-10-09T22:18:50.570Z,69.87
2022-10-09T22:21:18.429Z,70.58
2022-10-09T22:23:45.536Z,71.39
2022-10-09T22:26:17.125Z,71.26
2022-10-09T22:28:45.461Z,71.42
2022-10-09T22:31:22.411Z,71.73
2022-10-09T22:33:51.368Z,71.97
2022-10-09T22:36:19.590Z,71.97
2022-10-09T22:38:46.860Z,72.48
2022-10-09T22:41:16.725Z,72.73
2022-10-09T22:43:46.103Z,72.63
2022-10-09T22:46:16.934Z,72.90
2022-10-09T22:48:44.588Z,73.09
2022-10-09T22:51:14.233Z,73.30
2022-10-09T22:53:42.741Z,73.10
2022-10-09T22:56:25.290Z,73.87
2022-10-09T22:58:53.273Z,73.54
2022-10-09T23:01:31.584Z,74.38
2022-10-09T23:04:04.046Z,74.59
2022-10-09T23:06:31.272Z,74.49
2022-10-09T23:08:58.960Z,75.23
2022-10-09T23:11:26.404Z,75.93
2022-10-09T23:13:55.208Z,75.75
2022-10-09T23:16:23.035Z,76.75
2022-10-09T23:18:50.512Z,76.84
2022-10-09T23:21:20.138Z,76.70
2022-10-09T23:23:47.975Z,76.96
2022-10-09T23:26:18.106Z,76.59
2022-10-09T23:28:53.670Z,76.53
2022-10-09T23:31:21.647Z,76.72
2022-10-09T23:33:48.687Z,77.35
2022-10-09T23:36:18.438Z,76.79
2022-10-09T23:38:46.086Z,77.22
2022-10-09T23:41:15.691Z,77.08
2022-10-09T23:43:44.207Z,77.29
2022-10-09T23:46:19.604Z,77.46
2022-10-09T23:48:47.441Z,77.73
2022-10-09T23:51:15.652Z,77.73
2022-10-09T23:53:43.273Z,78.09
2022-10-09T23:56:23.301Z,78.14
2022-10-09T23:58:51.202Z,78.37
